Česky Dansk Deutsch English Español Suomi Français Magyar Italiano Nederlands norsk Polski Português svenska Türkçe

 

Het Weer

Nan (Thailand)

03:00, 28 juli 2016 (GMT)

NWNNE
WE
SWSSE
Home            
Nan Phrae Sayaboury Lampang Uttaradit Chiang Rai Loei Chiang Mai Luang-Prabang Vientiane Phitsanulok Nong Khai Udon Thani Tak Mae Sariang Kengtung Mae Hong Son Mae Sot Nakhon Sawan Khon Kaen Chaiyaphum Hpa-An Sakon Nakhon

Om een weerknop op uw website of weblog te plaatsen, copieer onderstaande code en plak die in uw pagina. In het eerste vakje staat HTML-code, in het tweede vakje UBB-code.


Add to Google

Details

Wind speed:2 bf, 5 kn, 2.6 m/s, 5.8 miles/h, 9.3 km/h
Wind direction:NNE, 030°
Visibility:Greater than 10000 m, 10 km, 32800 ft, 6.2 miles
Clouds:Durchbrochene Bewölkung at 2000 ft, 610 m
Geschlossene Wolkendecke at 10000 ft, 3048 m
Temperature:27°C, 81°F
Gefühlte Temperatur:31°C, 88°F
Dew-point:25°C, 77°F
Atmospheric pressure:1007 hPa, 755.1 mmHg, 29.73 inHg, 0.994 atm
Relative humidity:88.8 %
METAR:VTCN 280300Z 03005KT 9999 BKN020 OVC100 27/25 Q1006 A2973

Snelkoppelingen

Actuele weersinformatie van de hele wereld. Voeg locaties toe met het plus (+) symbool. Deze snelkoppelingen kunnen worden toegevoegd aan Google.

Lid van de Technetium groep

website free tracking
StatCounter NetStat W3C Validator

04-08-2020 02:04:06
astro.technetium.be money.technetium.be phote.technetium.be tafeltennistafel.technetium.be www.ligfiets.net